Time;durP1;ratioP1;P1;durP2;ratioP2;P2;SDS_P1;SDS_P2;PMS_P1;PMS_P2;Temp;Humidity;BMP_temperature;BMP_pressure;BME280_temperature;BME280_humidity;BME280_pressure;Samples;Min_cycle;Max_cycle;Signal;HPM_P1;HPM_P2
2022/10/14 00:02:17;;;;;;;28.13;18.73;;;;;;;14.57;100.00;98611.97;5099351;28;20509;-59
2022/10/14 00:04:42;;;;;;;30.25;19.10;;;;;;;14.19;100.00;98567.28;5088842;28;20028;-60
2022/10/14 00:07:07;;;;;;;31.20;20.25;;;;;;;14.53;100.00;98609.81;5092861;27;20024;-59
2022/10/14 00:09:33;;;;;;;26.85;19.38;;;;;;;14.39;100.00;98603.53;5092520;27;20024;-58
2022/10/14 00:11:58;;;;;;;27.42;18.70;;;;;;;14.46;100.00;98617.56;5087254;28;20020;-58
2022/10/14 00:14:24;;;;;;;27.85;19.10;;;;;;;14.47;100.00;98620.97;5085677;28;20028;-59
2022/10/14 00:16:52;;;;;;;30.30;19.00;;;;;;;14.39;100.00;98625.25;5089504;28;20028;-58
2022/10/14 00:19:18;;;;;;;26.52;18.50;;;;;;;14.08;100.00;98579.94;5090845;28;20073;-59
2022/10/14 00:21:44;;;;;;;25.88;18.67;;;;;;;14.30;100.00;98607.16;5090154;28;20119;-58
2022/10/14 00:24:14;;;;;;;27.23;18.95;;;;;;;14.05;100.00;98596.75;5073532;28;20028;-60
2022/10/14 00:26:40;;;;;;;28.52;19.88;;;;;;;13.94;100.00;98584.84;5090765;28;20108;-59
2022/10/14 00:29:08;;;;;;;29.20;19.98;;;;;;;14.23;100.00;98630.53;5091145;28;20024;-59
2022/10/14 00:31:34;;;;;;;27.75;19.65;;;;;;;14.26;100.00;98632.81;5092178;28;20020;-58
2022/10/14 00:34:00;;;;;;;30.55;19.88;;;;;;;14.28;100.00;98625.63;5087584;28;20036;-58
2022/10/14 00:36:26;;;;;;;29.40;19.30;;;;;;;14.22;100.00;98629.72;5078907;28;20138;-58
2022/10/14 00:38:52;;;;;;;28.45;18.63;;;;;;;13.98;100.00;98609.69;5095167;28;20393;-59
2022/10/14 00:41:24;;;;;;;29.70;19.10;;;;;;;14.06;100.00;98637.59;5087179;28;20036;-60
2022/10/14 00:43:58;;;;;;;33.33;20.30;;;;;;;14.04;100.00;98629.91;5072055;28;20530;-59
2022/10/14 00:46:25;;;;;;;33.20;20.83;;;;;;;14.12;100.00;98638.72;5090424;28;20560;-59
2022/10/14 00:48:51;;;;;;;29.15;19.58;;;;;;;14.10;100.00;98620.59;5088126;28;20077;-59
2022/10/14 00:51:18;;;;;;;30.45;19.67;;;;;;;14.14;100.00;98621.88;5086987;28;20043;-59
2022/10/14 00:53:43;;;;;;;29.25;18.80;;;;;;;14.19;100.00;98630.06;5079576;28;20101;-59
2022/10/14 00:56:10;;;;;;;32.70;20.15;;;;;;;14.01;100.00;98626.81;5079282;28;20089;-59
2022/10/14 00:58:36;;;;;;;28.90;20.17;;;;;;;13.94;100.00;98618.81;5093839;28;20019;-59
2022/10/14 01:01:02;;;;;;;26.83;18.67;;;;;;;14.08;100.00;98624.38;5091175;28;20620;-59
2022/10/14 01:03:28;;;;;;;28.98;19.10;;;;;;;14.07;100.00;98620.09;5096061;28;20024;-59
2022/10/14 01:06:12;;;;;;;31.35;19.27;;;;;;;13.96;100.00;98624.72;5095735;28;20028;-59
2022/10/14 01:08:57;;;;;;;29.40;19.00;;;;;;;13.66;100.00;98581.78;5086173;28;20031;-58
2022/10/14 01:11:31;;;;;;;28.65;19.30;;;;;;;13.85;100.00;98614.59;5091013;28;20073;-59
2022/10/14 01:14:20;;;;;;;29.23;19.17;;;;;;;13.92;100.00;98618.16;5094836;28;20106;-59
2022/10/14 01:17:11;;;;;;;28.27;19.63;;;;;;;13.87;100.00;98620.47;5095109;28;20523;-58
2022/10/14 01:19:48;;;;;;;28.20;18.75;;;;;;;13.76;100.00;98619.03;5093248;27;20063;-58
2022/10/14 01:22:28;;;;;;;30.17;19.48;;;;;;;13.76;100.00;98626.03;5085931;28;20471;-59
2022/10/14 01:25:00;;;;;;;29.10;18.45;;;;;;;13.80;100.00;98622.13;5093891;28;20035;-58
2022/10/14 01:27:28;;;;;;;27.60;17.77;;;;;;;13.86;100.00;98620.66;5091039;28;20020;-58
2022/10/14 01:30:18;;;;;;;27.77;18.67;;;;;;;13.83;100.00;98612.13;5090401;28;20034;-59
2022/10/14 01:32:49;;;;;;;29.10;19.85;;;;;;;13.86;100.00;98623.25;5087592;28;20031;-59
2022/10/14 01:35:17;;;;;;;27.77;18.23;;;;;;;13.67;100.00;98621.78;5093493;28;20031;-58
2022/10/14 01:37:48;;;;;;;32.72;18.67;;;;;;;13.77;100.00;98617.22;5086712;28;20393;-59
2022/10/14 01:40:21;;;;;;;27.67;17.63;;;;;;;13.82;100.00;98620.16;5090698;28;20038;-59
2022/10/14 01:42:47;;;;;;;26.48;18.10;;;;;;;13.80;100.00;98614.28;5111063;28;20024;-59
2022/10/14 01:45:20;;;;;;;30.25;18.15;;;;;;;13.74;100.00;98609.72;5072021;28;20039;-59
2022/10/14 01:47:48;;;;;;;28.15;17.95;;;;;;;13.35;100.00;98579.03;5096314;28;20177;-59
2022/10/14 01:50:17;;;;;;;29.52;18.73;;;;;;;13.50;100.00;98595.66;5096114;27;20632;-59
2022/10/14 01:52:47;;;;;;;26.02;18.25;;;;;;;13.29;100.00;98572.66;5086587;28;20103;-59
2022/10/14 01:55:22;;;;;;;27.50;18.10;;;;;;;13.45;100.00;98613.63;5076991;28;20031;-59
2022/10/14 01:57:50;;;;;;;26.30;17.17;;;;;;;13.56;100.00;98605.50;5091684;28;20031;-60
2022/10/14 02:00:15;;;;;;;27.40;17.13;;;;;;;13.62;100.00;98598.78;5097650;28;20116;-60
2022/10/14 02:02:41;;;;;;;25.48;16.67;;;;;;;13.61;100.00;98587.50;5091257;28;20043;-59
2022/10/14 02:05:21;;;;;;;27.20;18.20;;;;;;;13.67;100.00;98593.06;5095780;28;20042;-60
2022/10/14 02:07:51;;;;;;;25.60;17.23;;;;;;;13.56;100.00;98583.75;5089897;28;20485;-60
2022/10/14 02:10:32;;;;;;;;;;;;;;;13.61;100.00;98584.88;5092781;28;20028;-59
2022/10/14 02:13:33;;;;;;;23.92;15.88;;;;;;;13.38;100.00;98589.13;5102902;28;19922;-59
2022/10/14 02:16:20;;;;;;;27.67;16.70;;;;;;;13.09;100.00;98538.22;5083339;28;20048;-60
2022/10/14 02:19:02;;;;;;;28.67;18.10;;;;;;;13.46;100.00;98570.88;5084415;27;20036;-59
2022/10/14 02:22:00;;;;;;;25.88;16.50;;;;;;;13.46;100.00;98566.44;5098742;28;20034;-59
2022/10/14 02:24:30;;;;;;;23.23;16.65;;;;;;;13.34;100.00;98553.88;5087160;28;20043;-59
2022/10/14 02:26:57;;;;;;;24.33;16.42;;;;;;;13.39;100.00;98556.84;5094745;28;20028;-59
2022/10/14 02:29:23;;;;;;;26.60;16.75;;;;;;;13.52;100.00;98564.97;5078240;28;20425;-59
2022/10/14 02:31:50;;;;;;;25.83;16.90;;;;;;;13.36;100.00;98564.97;5098209;28;20078;-59
2022/10/14 02:34:18;;;;;;;28.08;17.02;;;;;;;13.24;100.00;98580.16;5098558;28;20035;-59
2022/10/14 02:36:44;;;;;;;25.27;17.42;;;;;;;13.17;100.00;98572.13;5093898;28;20039;-59
2022/10/14 02:39:11;;;;;;;25.33;15.85;;;;;;;13.12;100.00;98545.69;5078640;28;20036;-59
2022/10/14 02:41:37;;;;;;;25.30;17.73;;;;;;;13.39;100.00;98569.88;5093899;28;20515;-59
2022/10/14 02:44:06;;;;;;;26.95;16.85;;;;;;;13.38;100.00;98563.84;5088576;28;20478;-59
2022/10/14 02:46:33;;;;;;;25.35;16.90;;;;;;;13.39;100.00;98555.03;5074780;28;20028;-60
2022/10/14 02:48:58;;;;;;;25.17;17.10;;;;;;;13.16;100.00;98525.31;5087364;28;20759;-59
2022/10/14 02:51:24;;;;;;;27.30;16.77;;;;;;;13.34;100.00;98551.28;5093515;27;20032;-59
2022/10/14 02:53:49;;;;;;;26.10;17.23;;;;;;;13.13;100.00;98518.63;5095520;28;20032;-59
2022/10/14 02:56:16;;;;;;;25.63;17.33;;;;;;;13.27;100.00;98554.53;5087782;28;20082;-59
2022/10/14 02:58:42;;;;;;;24.40;16.92;;;;;;;13.15;100.00;98563.66;5098890;27;20058;-59
2022/10/14 03:01:08;;;;;;;27.40;17.42;;;;;;;13.15;100.00;98565.44;5075405;28;20028;-59
2022/10/14 03:03:34;;;;;;;23.50;16.25;;;;;;;13.26;100.00;98565.94;5087388;28;20532;-59
2022/10/14 03:05:59;;;;;;;27.05;17.60;;;;;;;13.27;100.00;98572.81;5098192;28;20518;-59
2022/10/14 03:08:25;;;;;;;24.77;16.63;;;;;;;13.10;100.00;98568.53;5098513;28;20035;-59
2022/10/14 03:10:50;;;;;;;24.80;16.60;;;;;;;13.02;100.00;98542.44;5092680;28;20032;-59
2022/10/14 03:13:15;;;;;;;26.50;16.90;;;;;;;13.05;100.00;98560.38;5100121;28;20038;-59
2022/10/14 03:15:41;;;;;;;24.55;16.75;;;;;;;13.19;100.00;98558.91;5091385;28;20051;-58
2022/10/14 03:18:06;;;;;;;24.15;16.83;;;;;;;13.24;100.00;98570.50;5091813;28;20095;-59
2022/10/14 03:20:32;;;;;;;24.63;15.98;;;;;;;13.22;100.00;98576.88;5093313;28;20054;-59
2022/10/14 03:22:57;;;;;;;24.17;16.25;;;;;;;13.01;100.00;98540.78;5090245;28;20081;-60
2022/10/14 03:25:23;;;;;;;23.80;15.95;;;;;;;13.00;100.00;98533.97;5089495;28;20031;-58
2022/10/14 03:27:48;;;;;;;24.35;15.40;;;;;;;13.23;100.00;98566.28;5070614;28;20023;-58
2022/10/14 03:30:14;;;;;;;23.70;16.08;;;;;;;13.22;100.00;98563.81;5076816;28;20490;-60
2022/10/14 03:32:40;;;;;;;22.35;15.98;;;;;;;13.29;100.00;98567.41;5088984;28;20554;-60
2022/10/14 03:35:05;;;;;;;24.77;16.67;;;;;;;13.27;100.00;98554.53;5096697;28;20073;-60
2022/10/14 03:37:31;;;;;;;26.75;16.75;;;;;;;13.09;100.00;98561.69;5095087;28;20085;-57
2022/10/14 03:39:56;;;;;;;23.73;16.08;;;;;;;12.72;100.00;98556.91;5093896;28;20044;-60
2022/10/14 03:42:22;;;;;;;22.30;15.55;;;;;;;12.84;100.00;98563.44;5093478;28;20100;-58
2022/10/14 03:44:47;;;;;;;26.50;17.30;;;;;;;12.97;100.00;98562.97;5092973;28;20039;-58
2022/10/14 03:47:13;;;;;;;24.45;16.60;;;;;;;12.99;100.00;98563.63;5086243;28;20502;-58
2022/10/14 03:49:38;;;;;;;28.95;17.75;;;;;;;13.05;100.00;98568.19;5096401;28;20030;-58
2022/10/14 03:52:03;;;;;;;27.08;17.65;;;;;;;13.07;100.00;98563.66;5088537;28;20064;-58
2022/10/14 03:54:29;;;;;;;24.55;17.20;;;;;;;13.10;100.00;98570.34;5090937;28;20046;-58
2022/10/14 03:56:54;;;;;;;23.25;16.10;;;;;;;13.06;100.00;98567.22;5088282;27;20119;-59
2022/10/14 03:59:20;;;;;;;24.83;16.63;;;;;;;13.03;100.00;98559.72;5096888;27;20043;-58
2022/10/14 04:01:45;;;;;;;24.80;16.77;;;;;;;12.78;100.00;98525.78;5089484;28;20024;-59
2022/10/14 04:04:10;;;;;;;26.90;17.25;;;;;;;13.01;100.00;98556.47;5090478;28;20063;-59
2022/10/14 04:06:36;;;;;;;24.60;16.13;;;;;;;12.84;100.00;98553.81;5093918;28;20028;-58
2022/10/14 04:09:02;;;;;;;27.63;16.75;;;;;;;12.93;100.00;98572.13;5087478;28;20066;-59
2022/10/14 04:11:28;;;;;;;27.50;17.65;;;;;;;12.98;100.00;98560.22;5092235;28;20047;-59
2022/10/14 04:13:57;;;;;;;26.60;17.52;;;;;;;13.04;100.00;98553.53;5090850;28;20474;-58
2022/10/14 04:16:22;;;;;;;25.07;17.27;;;;;;;12.60;100.00;98502.44;5097165;28;20035;-57
2022/10/14 04:18:48;;;;;;;24.92;16.55;;;;;;;12.65;100.00;98534.06;5068494;28;20144;-58
2022/10/14 04:21:13;;;;;;;24.70;16.58;;;;;;;12.76;100.00;98548.59;5090349;28;20032;-59
2022/10/14 04:23:38;;;;;;;26.65;18.05;;;;;;;12.79;100.00;98540.44;5088726;28;20102;-58
2022/10/14 04:26:08;;;;;;;29.35;17.50;;;;;;;12.92;100.00;98553.00;5095146;28;20036;-58
2022/10/14 04:28:34;;;;;;;27.40;17.63;;;;;;;12.88;100.00;98559.53;5108932;27;20106;-58
2022/10/14 04:30:59;;;;;;;30.58;17.42;;;;;;;12.81;100.00;98562.00;5073726;27;20084;-58
2022/10/14 04:33:25;;;;;;;29.63;18.25;;;;;;;12.81;100.00;98556.78;5098527;28;20490;-58
2022/10/14 04:35:59;;;;;;;32.92;17.77;;;;;;;12.53;100.00;98563.22;5089185;28;20030;-58
2022/10/14 04:38:26;;;;;;;30.23;18.95;;;;;;;12.65;100.00;98552.31;5085508;27;20050;-58
2022/10/14 04:40:51;;;;;;;27.48;18.05;;;;;;;12.60;100.00;98565.03;5092575;28;20028;-58
2022/10/14 04:43:17;;;;;;;26.67;18.23;;;;;;;12.64;100.00;98557.69;5093998;28;20542;-58
2022/10/14 04:45:42;;;;;;;29.58;18.20;;;;;;;12.62;100.00;98560.47;5082597;28;20043;-58
2022/10/14 04:48:07;;;;;;;30.83;19.50;;;;;;;12.62;100.00;98559.66;5089714;28;20035;-59
2022/10/14 04:50:33;;;;;;;28.67;19.00;;;;;;;12.76;100.00;98559.03;5089798;28;20470;-58
2022/10/14 04:52:58;;;;;;;29.83;17.83;;;;;;;12.54;100.00;98523.94;5090455;28;20027;-58
2022/10/14 04:55:24;;;;;;;30.17;18.45;;;;;;;12.77;100.00;98544.19;5088160;28;20161;-57
2022/10/14 04:57:49;;;;;;;29.58;17.73;;;;;;;12.83;100.00;98544.38;5088778;28;20028;-58
2022/10/14 05:00:15;;;;;;;25.95;17.58;;;;;;;12.67;100.00;98546.94;5084465;28;20138;-59
2022/10/14 05:02:40;;;;;;;28.10;18.30;;;;;;;12.46;100.00;98552.59;5088205;27;20046;-60
2022/10/14 05:05:06;;;;;;;29.70;16.77;;;;;;;12.19;100.00;98471.03;5094563;28;20027;-58
2022/10/14 05:07:32;;;;;;;29.42;18.27;;;;;;;12.61;100.00;98539.75;5094387;28;20439;-58
2022/10/14 05:09:57;;;;;;;28.90;18.73;;;;;;;12.78;100.00;98540.63;5095026;28;20401;-57
2022/10/14 05:12:23;;;;;;;31.05;19.17;;;;;;;12.83;100.00;98547.00;5091201;28;20032;-58
2022/10/14 05:14:48;;;;;;;33.28;18.92;;;;;;;12.84;100.00;98540.78;5078294;28;20036;-58
2022/10/14 05:17:14;;;;;;;29.17;17.88;;;;;;;12.53;100.00;98500.63;5081535;27;20041;-58
2022/10/14 05:19:39;;;;;;;26.90;17.63;;;;;;;12.75;100.00;98533.91;5089194;28;20039;-59
2022/10/14 05:22:05;;;;;;;27.23;18.75;;;;;;;12.83;100.00;98535.72;5094914;28;20030;-57
2022/10/14 05:24:30;;;;;;;29.75;17.92;;;;;;;12.79;100.00;98531.81;5092175;28;20047;-58
2022/10/14 05:26:56;;;;;;;30.05;18.55;;;;;;;12.81;100.00;98537.66;5095502;28;20835;-58
2022/10/14 05:29:21;;;;;;;27.45;17.77;;;;;;;12.66;100.00;98507.00;5079945;28;20034;-59
2022/10/14 05:31:46;;;;;;;25.85;17.98;;;;;;;12.66;100.00;98491.34;5075640;28;20489;-58
2022/10/14 05:34:12;;;;;;;29.17;18.20;;;;;;;12.73;100.00;98515.00;5079410;28;20552;-58
2022/10/14 05:36:38;;;;;;;31.80;17.90;;;;;;;12.75;100.00;98526.09;5088164;28;20035;-58
2022/10/14 05:39:07;;;;;;;26.17;18.58;;;;;;;12.77;100.00;98536.38;5082520;28;20062;-59
2022/10/14 05:41:32;;;;;;;26.67;18.13;;;;;;;12.74;100.00;98534.06;5069139;28;20028;-59
2022/10/14 05:43:58;;;;;;;25.80;17.55;;;;;;;12.77;100.00;98538.97;5092842;28;20651;-59
2022/10/14 05:46:23;;;;;;;27.75;18.27;;;;;;;12.85;100.00;98534.59;5098856;28;20032;-59
2022/10/14 05:48:49;;;;;;;26.30;17.65;;;;;;;12.78;100.00;98533.59;5095651;28;20028;-58
2022/10/14 05:51:14;;;;;;;25.58;16.63;;;;;;;12.82;100.00;98541.94;5069052;28;20756;-58
2022/10/14 05:53:40;;;;;;;31.10;18.42;;;;;;;12.75;100.00;98513.03;5087291;28;20043;-58
2022/10/14 05:56:08;;;;;;;27.17;18.52;;;;;;;12.89;100.00;98541.13;5087100;28;20604;-58
2022/10/14 05:58:33;;;;;;;27.55;17.48;;;;;;;12.76;100.00;98504.25;5086775;28;20031;-58
2022/10/14 06:01:04;;;;;;;28.35;18.52;;;;;;;13.02;100.00;98537.22;5088304;28;20032;-58
2022/10/14 06:03:29;;;;;;;31.58;18.95;;;;;;;13.02;100.00;98542.44;5084282;28;20017;-59
2022/10/14 06:05:55;;;;;;;43.67;20.42;;;;;;;12.99;100.00;98529.69;5097441;28;20035;-58
2022/10/14 06:08:21;;;;;;;35.10;19.83;;;;;;;13.06;100.00;98534.09;5087943;28;20032;-58
2022/10/14 06:10:47;;;;;;;30.95;18.67;;;;;;;13.08;100.00;98523.50;5075657;28;20047;-59
2022/10/14 06:13:13;;;;;;;32.92;18.10;;;;;;;13.12;100.00;98518.78;5092334;28;20406;-59
2022/10/14 06:15:38;;;;;;;41.78;20.02;;;;;;;13.04;100.00;98496.09;5089985;28;20359;-58
2022/10/14 06:18:04;;;;;;;48.10;20.35;;;;;;;13.32;100.00;98535.78;5071325;28;20355;-59
2022/10/14 06:20:30;;;;;;;38.78;18.85;;;;;;;13.30;100.00;98527.25;5085320;28;20051;-59
2022/10/14 06:22:57;;;;;;;35.88;18.13;;;;;;;13.39;100.00;98536.75;5088159;28;20035;-60
2022/10/14 06:25:23;;;;;;;34.35;18.77;;;;;;;13.17;100.00;98496.41;5088106;28;20587;-59
2022/10/14 06:27:48;;;;;;;33.67;18.85;;;;;;;13.50;100.00;98537.41;5081149;28;20124;-60
2022/10/14 06:30:14;;;;;;;31.33;17.88;;;;;;;13.52;100.00;98531.03;5084921;28;20035;-58
2022/10/14 06:32:39;;;;;;;30.70;17.33;;;;;;;13.52;100.00;98544.09;5085857;28;20064;-58
2022/10/14 06:35:05;;;;;;;26.80;16.85;;;;;;;13.57;100.00;98547.03;5085021;28;20283;-59
2022/10/14 06:37:31;;;;;;;26.15;16.88;;;;;;;13.65;100.00;98549.63;5096949;28;20032;-59
2022/10/14 06:39:56;;;;;;;25.70;17.35;;;;;;;13.80;100.00;98560.22;5086799;28;20032;-57
2022/10/14 06:42:21;;;;;;;30.25;18.20;;;;;;;13.82;100.00;98565.28;5098119;28;20035;-59
2022/10/14 06:44:47;;;;;;;26.55;18.30;;;;;;;13.87;100.00;98570.81;5094054;28;20036;-58
2022/10/14 06:47:12;;;;;;;26.17;17.55;;;;;;;13.87;100.00;98575.22;5098612;28;20149;-59
2022/10/14 06:49:38;;;;;;;23.75;16.38;;;;;;;13.98;100.00;98575.69;5089930;28;20038;-58
2022/10/14 06:52:03;;;;;;;24.02;16.15;;;;;;;14.04;100.00;98580.25;5093296;28;20113;-59
2022/10/14 06:54:29;;;;;;;23.08;16.15;;;;;;;14.06;100.00;98577.47;5092678;28;20023;-58
2022/10/14 06:56:54;;;;;;;22.63;16.55;;;;;;;13.87;100.00;98542.06;5087929;28;20028;-58
2022/10/14 06:59:20;;;;;;;27.25;16.80;;;;;;;14.11;100.00;98571.72;5097273;28;20047;-59
2022/10/14 07:01:45;;;;;;;26.10;17.05;;;;;;;13.99;100.00;98561.63;5110452;27;20032;-58
2022/10/14 07:04:10;;;;;;;32.42;18.20;;;;;;;14.14;100.00;98580.03;5092206;28;20093;-59
2022/10/14 07:06:37;;;;;;;27.23;16.45;;;;;;;14.11;100.00;98582.19;5092045;28;20031;-59
2022/10/14 07:09:03;;;;;;;24.67;16.60;;;;;;;14.17;100.00;98565.84;5080689;28;20108;-57
2022/10/14 07:11:29;;;;;;;22.98;16.55;;;;;;;14.27;100.00;98576.91;5078140;28;20024;-57
2022/10/14 07:13:55;;;;;;;24.38;15.75;;;;;;;14.29;100.00;98581.97;5076986;28;20067;-59
2022/10/14 07:16:21;;;;;;;24.38;16.50;;;;;;;14.34;100.00;98575.25;5094092;28;20072;-59
2022/10/14 07:18:47;;;;;;;25.65;16.50;;;;;;;14.43;100.00;98576.84;5087039;28;20109;-59
2022/10/14 07:21:13;;;;;;;25.60;16.90;;;;;;;14.57;100.00;98580.56;5096604;28;20031;-58
2022/10/14 07:23:38;;;;;;;25.92;16.73;;;;;;;14.57;100.00;98582.34;5085929;28;20040;-59
2022/10/14 07:26:04;;;;;;;22.98;16.10;;;;;;;14.54;100.00;98590.53;5088189;28;20042;-58
2022/10/14 07:28:29;;;;;;;24.38;16.42;;;;;;;14.56;100.00;98593.78;5078263;28;20032;-58
2022/10/14 07:31:00;;;;;;;23.38;15.93;;;;;;;14.60;100.00;98598.56;5092804;28;20104;-58
2022/10/14 07:33:25;;;;;;;21.20;16.10;;;;;;;14.57;100.00;98575.34;5078037;28;20596;-58
2022/10/14 07:35:51;;;;;;;21.02;15.98;;;;;;;14.72;100.00;98583.28;5081755;28;20036;-59
2022/10/14 07:38:17;;;;;;;23.27;16.00;;;;;;;14.66;100.00;98597.06;5088003;28;20024;-59
2022/10/14 07:40:43;;;;;;;22.30;17.13;;;;;;;14.39;100.00;98551.19;5072398;28;20028;-58
2022/10/14 07:43:08;;;;;;;22.42;15.18;;;;;;;14.71;100.00;98604.38;5091584;28;20028;-59
2022/10/14 07:45:35;;;;;;;23.92;15.43;;;;;;;14.82;100.00;98603.19;5091037;28;20024;-58
2022/10/14 07:48:00;;;;;;;22.50;15.88;;;;;;;14.84;100.00;98611.69;5088229;28;20841;-58
2022/10/14 07:50:26;;;;;;;21.20;14.25;;;;;;;14.75;100.00;98601.25;5099449;28;20027;-59
2022/10/14 07:52:51;;;;;;;27.10;17.63;;;;;;;14.82;100.00;98598.75;5086045;28;20032;-59
2022/10/14 07:55:17;;;;;;;21.23;15.77;;;;;;;14.79;100.00;98594.69;5100756;28;20035;-58
2022/10/14 07:57:42;;;;;;;24.23;15.02;;;;;;;14.84;100.00;98603.81;5083793;27;20070;-58
2022/10/14 08:00:08;;;;;;;23.00;14.45;;;;;;;14.87;100.00;98593.81;5070972;28;20073;-59
2022/10/14 08:02:34;;;;;;;22.98;16.20;;;;;;;14.92;100.00;98599.38;5083913;27;20055;-58
2022/10/14 08:05:00;;;;;;;21.70;14.63;;;;;;;14.90;100.00;98601.34;5092383;28;20035;-59
2022/10/14 08:07:26;;;;;;;23.02;14.50;;;;;;;14.69;100.00;98570.53;5076957;28;20030;-58
2022/10/14 08:09:55;;;;;;;24.42;15.07;;;;;;;14.90;100.00;98600.53;5079383;28;20020;-59
2022/10/14 08:12:20;;;;;;;21.63;14.73;;;;;;;15.02;100.00;98600.94;5093226;28;20895;-58
2022/10/14 08:14:46;;;;;;;21.20;14.55;;;;;;;14.99;100.00;98602.13;5092016;28;20102;-58
2022/10/14 08:17:11;;;;;;;21.77;14.88;;;;;;;14.98;100.00;98597.84;5091313;28;20028;-59
2022/10/14 08:19:37;;;;;;;21.75;14.73;;;;;;;15.01;100.00;98597.50;5072223;28;20032;-59
2022/10/14 08:22:02;;;;;;;20.60;15.07;;;;;;;14.89;100.00;98568.28;5088182;28;20568;-58
2022/10/14 08:24:28;;;;;;;22.75;15.00;;;;;;;15.02;100.00;98590.47;5079493;28;20050;-59
2022/10/14 08:26:56;;;;;;;20.90;14.40;;;;;;;14.94;100.00;98575.63;5073908;28;20061;-59
2022/10/14 08:29:22;;;;;;;24.15;14.43;;;;;;;15.09;100.00;98586.16;5087237;28;20020;-58
2022/10/14 08:31:48;;;;;;;21.15;14.63;;;;;;;15.19;100.00;98598.03;5086695;28;20501;-58
2022/10/14 08:34:14;;;;;;;19.70;14.07;;;;;;;15.21;100.00;98594.44;5075221;28;20462;-58
2022/10/14 08:36:39;;;;;;;19.42;13.45;;;;;;;15.15;100.00;98586.28;5089265;28;20030;-59
2022/10/14 08:39:07;;;;;;;20.00;13.60;;;;;;;15.19;100.00;98590.19;5073005;28;20031;-59
2022/10/14 08:41:50;;;;;;;20.38;13.80;;;;;;;15.34;100.00;98582.38;5089086;28;20080;-58
2022/10/14 08:44:40;;;;;;;21.25;14.50;;;;;;;15.31;100.00;98581.91;5072267;28;20047;-58
2022/10/14 08:47:14;;;;;;;20.35;14.02;;;;;;;15.21;100.00;98587.41;5086058;28;20063;-59
2022/10/14 08:49:57;;;;;;;21.02;14.35;;;;;;;15.23;100.00;98582.00;5096689;27;20032;-57
2022/10/14 08:52:30;;;;;;;20.88;14.30;;;;;;;15.18;100.00;98562.34;5081679;28;20576;-58
2022/10/14 08:55:25;;;;;;;21.92;14.30;;;;;;;15.43;100.00;98583.13;5064163;28;20138;-58
2022/10/14 08:57:57;;;;;;;21.23;13.57;;;;;;;15.41;100.00;98587.75;5084108;27;20039;-58
2022/10/14 09:00:22;;;;;;;22.48;14.30;;;;;;;15.53;100.00;98575.84;5073416;28;20032;-58
2022/10/14 09:02:51;;;;;;;19.48;13.68;;;;;;;15.60;100.00;98596.91;5081144;28;20084;-58
2022/10/14 09:05:22;;;;;;;22.67;14.40;;;;;;;15.55;100.00;98600.06;5081149;28;20058;-58
2022/10/14 09:07:49;;;;;;;21.63;14.15;;;;;;;15.44;100.00;98595.25;5071784;28;20428;-58
2022/10/14 09:10:40;;;;;;;19.45;13.80;;;;;;;15.17;100.00;98550.25;5065884;28;20023;-58
2022/10/14 09:13:20;;;;;;;19.17;13.95;;;;;;;15.51;100.00;98603.19;5088939;28;20111;-58
2022/10/14 09:15:55;;;;;;;22.58;14.65;;;;;;;15.53;100.00;98602.06;5064012;28;20843;-59
2022/10/14 09:18:36;;;;;;;20.70;13.70;;;;;;;15.33;100.00;98572.06;5087903;28;20685;-58
2022/10/14 09:21:13;;;;;;;20.95;14.40;;;;;;;15.53;100.00;98596.81;5072134;28;20499;-58
2022/10/14 09:23:39;;;;;;;19.33;14.00;;;;;;;15.50;100.00;98584.06;5062557;28;20046;-58
2022/10/14 09:26:09;;;;;;;22.65;14.60;;;;;;;15.62;100.00;98600.16;5074361;28;20028;-58
2022/10/14 09:28:42;;;;;;;21.08;13.60;;;;;;;15.55;100.00;98597.44;5065193;28;20059;-58
2022/10/14 09:31:10;;;;;;;22.38;14.85;;;;;;;15.69;100.00;98602.91;5063268;28;20035;-59
2022/10/14 09:33:39;;;;;;;22.33;14.05;;;;;;;15.65;100.00;98593.75;5061027;28;20574;-58
2022/10/14 09:36:25;;;;;;;21.67;15.43;;;;;;;15.73;100.00;98593.66;5067332;28;20038;-58
2022/10/14 09:38:52;;;;;;;18.95;13.77;;;;;;;15.79;100.00;98589.56;5080815;28;20047;-58
2022/10/14 09:41:22;;;;;;;21.67;14.40;;;;;;;15.87;100.00;98584.25;5089023;28;20028;-58
2022/10/14 09:44:13;;;;;;;21.02;14.90;;;;;;;16.03;100.00;98591.13;5055962;28;20469;-59
2022/10/14 09:46:38;;;;;;;19.98;14.60;;;;;;;16.10;100.00;98578.94;5085011;28;20035;-59
2022/10/14 09:49:04;;;;;;;21.17;13.57;;;;;;;16.19;100.00;98584.88;5083234;28;20028;-58
2022/10/14 09:51:32;;;;;;;20.17;13.60;;;;;;;16.29;100.00;98585.44;5082157;28;20044;-59
2022/10/14 09:54:03;;;;;;;17.52;12.73;;;;;;;16.44;94.45;98582.78;5080584;28;20019;-58
2022/10/14 09:56:36;;;;;;;20.60;12.55;;;;;;;16.44;94.07;98572.28;5086760;28;20028;-60
2022/10/14 09:59:04;;;;;;;21.20;14.15;;;;;;;16.32;94.80;98556.22;5080135;28;20028;-58
2022/10/14 10:01:49;;;;;;;20.98;13.40;;;;;;;16.32;95.39;98562.25;5064787;28;20492;-58
2022/10/14 10:04:34;;;;;;;18.52;13.57;;;;;;;16.49;96.23;98585.69;5079400;28;20142;-60
2022/10/14 10:07:05;;;;;;;21.25;12.77;;;;;;;16.53;91.65;98590.38;5070885;28;20093;-58
2022/10/14 10:09:32;;;;;;;18.20;12.77;;;;;;;16.29;91.59;98554.75;5070270;28;20027;-58
2022/10/14 10:11:58;;;;;;;18.60;12.88;;;;;;;16.56;91.12;98583.16;5072491;28;20028;-60
2022/10/14 10:14:28;;;;;;;17.15;12.48;;;;;;;16.52;91.96;98582.69;5060893;28;20375;-60
2022/10/14 10:17:06;;;;;;;17.77;12.98;;;;;;;16.50;92.25;98575.00;5090014;27;20039;-60
2022/10/14 10:19:34;;;;;;;17.85;12.38;;;;;;;16.54;90.77;98572.81;5092176;28;20043;-60
2022/10/14 10:22:25;;;;;;;19.83;13.52;;;;;;;16.48;91.20;98534.19;5085095;28;20040;-59
2022/10/14 10:25:00;;;;;;;20.33;13.52;;;;;;;16.76;93.33;98559.75;5090928;28;20043;-59
2022/10/14 10:27:28;;;;;;;21.42;13.95;;;;;;;16.85;95.92;98556.84;5085676;28;20039;-60
2022/10/14 10:29:56;;;;;;;21.20;14.38;;;;;;;16.73;95.93;98551.22;5084719;28;20028;-58
2022/10/14 10:32:34;;;;;;;21.40;13.98;;;;;;;16.79;96.19;98535.72;5068604;28;20172;-59
2022/10/14 10:35:44;;;;;;;22.08;15.20;;;;;;;16.83;94.96;98542.25;5085895;28;20032;-59
2022/10/14 10:38:21;;;;;;;24.35;16.15;;;;;;;16.88;94.55;98532.00;5083906;28;20028;-59
2022/10/14 10:41:05;;;;;;;24.50;15.75;;;;;;;17.00;92.68;98543.66;5074367;28;20023;-59
2022/10/14 10:43:35;;;;;;;23.88;16.38;;;;;;;16.83;91.71;98497.63;5102501;27;20757;-59
2022/10/14 10:46:14;;;;;;;23.80;15.50;;;;;;;17.19;91.15;98539.56;5086410;28;20081;-59
2022/10/14 10:48:50;;;;;;;22.75;15.27;;;;;;;17.18;91.75;98524.03;5070699;28;20093;-59
2022/10/14 10:51:22;;;;;;;25.77;17.42;;;;;;;17.28;90.81;98527.13;5085138;28;20024;-59
2022/10/14 10:54:15;;;;;;;25.67;16.83;;;;;;;17.31;89.65;98515.44;5086345;28;20023;-59
2022/10/14 10:56:49;;;;;;;25.40;17.17;;;;;;;17.38;90.19;98514.47;5068687;28;20028;-60
2022/10/14 10:59:42;;;;;;;24.42;17.25;;;;;;;17.46;90.51;98513.50;5068562;28;20477;-60
2022/10/14 11:02:33;;;;;;;26.70;16.55;;;;;;;17.55;89.58;98515.00;5076742;28;20140;-59
2022/10/14 11:05:22;;;;;;;23.58;16.48;;;;;;;17.61;86.11;98518.66;5082900;28;20522;-59
2022/10/14 11:13:44;;;;;;;26.48;17.30;;;;;;;17.61;86.17;98497.63;5084703;28;20043;-57
2022/10/14 11:16:26;;;;;;;27.58;17.20;;;;;;;17.72;86.25;98488.41;5081921;28;20094;-57
2022/10/14 11:18:57;;;;;;;23.92;16.83;;;;;;;17.64;83.59;98463.88;5083774;28;20119;-58
2022/10/14 11:21:38;;;;;;;23.52;16.27;;;;;;;17.95;83.79;98490.78;5082951;28;20063;-58
2022/10/14 11:24:16;;;;;;;25.20;16.38;;;;;;;17.99;83.02;98495.44;5068346;28;20027;-59
2022/10/14 11:27:07;;;;;;;23.88;16.05;;;;;;;18.11;81.60;98482.56;5084329;28;20242;-58